Carson Sink, Nevada Weather observations

Data are for observation ending at time listed.
 Day   Time    Ave.   Ave.  Ave.  Vector   Max.   Stn.    Total    Solar   Ave.  
  of    of     Air    Rel.  Wind   Wind    Wind   Baro.  Precip.   Rad.    Soil  
Year   Day     Temp.  Hum.  Speed  Dir.    Gust   Pres.                    Temp. 
2014   (PST)    F      %     mph   deg.    mph     mb.     in.     W/m2     F   
------------------------------------------------------------------------------
 212    5:30   71.0    36    0.0     0      0.0   885.8    0.00      20     83.4
 212    5:40   71.9    34    0.0     0      0.0   885.8    0.00      33     83.3
 212    5:50   71.6    35    0.0     0      0.0   885.8    0.00      45     83.2
 212    6:00   71.5    36    0.0     0      0.0   885.6    0.00      51     83.1
 212    6:10   71.2    36    0.0     0      0.0   885.7    0.00      51     83.0
 212    6:20   71.5    35    0.0     0      0.0   885.7    0.00      54     83.0
 212    6:30   71.5    34    0.0     0      0.0   885.7    0.00      59     82.9
 212    6:40   71.8    34    0.0     0      0.0   885.8    0.00      57     82.8
 212    6:50   71.9    34    0.0     0      0.0   885.9    0.00      57     82.8
 212    7:00   72.1    34    0.0     0      0.0   885.9    0.00      64     82.7
 212    7:10   72.6    34    0.0     0      0.0   885.9    0.00      69     82.7
 212    7:20   72.9    34    0.0     0      0.0   886.0    0.00      77     82.6
 212    7:30   73.1    33    0.0     0      0.0   886.1    0.00     120     82.6
 212    7:40   73.5    33    0.0     0      0.0   886.2    0.00     182     82.5
 212    7:50   74.4    32    0.0     0      0.0   886.2    0.00     224     82.5
 212    8:00   76.0    31    0.0     0      0.0   886.2    0.00     248     82.5
 212    8:10   77.7    29    0.0     0      0.0   886.2    0.00     246     82.5
 212    8:20   78.8    28    0.0     0      0.0   886.2    0.00     367     82.5
 212    8:30   81.5    24    0.0     0      0.0   886.1    0.00     764     82.5
 212    8:40   82.9    23    0.0     0      0.0   886.1    0.00     642     82.6
 212    8:50   82.8    22    0.0     0      0.0   886.2    0.00     799     82.7
 212    9:00   83.0    22    0.0     0      0.0   886.2    0.00     416     82.8
 212    9:10   83.7    22    0.0     0      0.0   886.2    0.00     644     83.0
 212    9:20   83.4    23    0.0     0      0.0   886.2    0.00     805     83.2
 212    9:30   84.7    22    0.0     0      0.0   886.2    0.00     765     83.5
 212    9:40   84.7    21    0.0     0      0.0   886.2    0.00     509     83.8
 212    9:50   85.6    20    0.0     0      0.0   886.1    0.00     612     84.1
 212   10:00   85.3    21    0.0     0      0.0   886.1    0.00     944     84.4
 212   10:10   86.4    20    0.0     0      0.0   886.1    0.00    1063     84.8
 212   10:20   88.3    18    0.0     0      0.0   886.0    0.00    1071     85.2
 212   10:30   88.1    19    0.0     0      0.0   885.9    0.00    1084     85.6
 212   10:40   88.3    18    0.0     0      0.0   885.8    0.00     957     86.0
 212   10:50   87.9    18    0.0     0      0.0   885.7    0.00     711     86.4
 212   11:00   87.8    18    0.0     0      0.0   885.6    0.00     688     86.9
 212   11:10   87.8    18    0.0     0      0.0   885.6    0.00     503     87.4
 212   11:20   88.1    18    0.0     0      0.0   885.6    0.00     593     87.9
 212   11:30   89.6    16    0.0     0      0.0   885.4    0.00     812     88.4
 212   11:40   89.9    16    0.0     0      0.0   885.3    0.00    1050     88.9
 212   11:50   89.3    16    0.0     0      0.0   885.2    0.00     977     89.3
 212   12:00   89.6    16    0.0     0      0.0   885.1    0.00     938     89.7
 212   12:10   91.3    15    0.0     0      0.0   884.9    0.00     924     90.1
 212   12:20   90.7    16    0.0     0      0.0   884.8    0.00     917     90.5
 212   12:30   90.3    15    0.0     0      0.0   884.7    0.00     915     91.0
 212   12:40   90.8    15    0.0     0      0.0   884.6    0.00     909     91.4
 212   12:50   91.2    15    0.0     0      0.0   884.5    0.00     904     91.9
 212   13:00   91.2    14    0.0     0      0.0   884.3    0.00     896     92.4
 212   13:10   91.3    14    0.0     0      0.0   884.2    0.00     883     92.8
 212   13:20   91.7    14    0.0     0      0.0   884.0    0.00     869     93.2
 212   13:30   92.6    14    0.0     0      0.0   883.9    0.00     859     93.6
 212   13:40   91.7    14    0.0     0      0.0   883.6    0.00     808     94.1
 212   13:50   93.0    14    0.0     0      0.0   883.5    0.00     771     94.4
 212   14:00   93.6    13    0.0     0      0.0   883.4    0.00     814     94.8
 212   14:10   92.9    13    0.0     0      0.0   883.2    0.00     806     95.1
 212   14:20   93.6    13    0.0     0      0.0   883.1    0.00     792     95.4
 212   14:30   92.6    13    0.0     0      0.0   883.0    0.00     707     95.6
 212   14:40   92.7    13    0.0     0      0.0   882.9    0.00     588     95.8
 212   14:50   93.0    13    0.0     0      0.0   882.8    0.00     511     95.9
 212   15:00   92.9    13    0.0     0      0.0   882.8    0.00     626     96.0
 212   15:10   93.5    13    0.0     0      0.0   882.8    0.00     634     96.2
 212   15:20   93.8    13    0.0     0      0.0   882.7    0.00     509     96.2
 212   15:30   93.2    13    0.0     0      0.0   882.6    0.00     558     96.4
 212   15:40   93.7    13    0.0     0      0.0   882.6    0.00     627     96.5
 212   15:50   94.9    13    0.0     0      0.0   882.5    0.00     480     96.6
 212   16:00   94.1    13    0.0     0      0.0   882.4    0.00     448     96.7
 212   16:10   93.6    13    0.0     0      0.0   882.4    0.00     318     96.8
 212   16:20   93.3    13    0.0     0      0.0   882.3    0.00     172     97.0
 212   16:30   92.7    13    0.0     0      0.0   882.2    0.00     183     97.1
 212   16:40   93.2    13    0.0     0      0.0   882.1    0.00     177     97.1
 212   16:50   92.6    13    0.0     0      0.0   882.0    0.00     159     97.1
 212   17:00   92.1    13    0.0     0      0.0   882.0    0.00     152     97.1
 212   17:10   92.2    13    0.0     0      0.0   881.9    0.00     149     97.0
 212   17:20   92.4    13    0.0     0      0.0   881.9    0.00     143     97.0
 212   17:30   92.1    13    0.0     0      0.0   881.9    0.00     129     96.9
 212   17:40   92.0    13    0.0     0      0.0   881.9    0.00     113     96.7
 212   17:50   92.0    13    0.0     0      0.0   881.9    0.00      96     96.6
 212   18:00   92.0    13    0.0     0      0.0   881.9    0.00      86     96.4
 212   18:10   91.7    13    0.0     0      0.0   882.0    0.00      72     96.3
 212   18:20   91.5    13    0.0     0      0.0   882.0    0.00      56     96.1
 212   18:30   91.4    13    0.0     0      0.0   882.0    0.00      43     95.9
 212   18:40   91.1    13    0.0     0      0.0   882.0    0.00      34     95.7
 212   18:50   90.5    13    0.0     0      0.0   882.1    0.00      23     95.5
 212   19:00   89.9    14    0.0     0      0.0   882.2    0.00      13     95.3
 212   19:10   88.6    14    0.0     0      0.0   882.3    0.00       5     95.1
 212   19:20   88.2    14    0.0     0      0.0   882.4    0.00       1     94.9
 212   19:30   86.8    14    0.0     0      0.0   882.4    0.00       0     94.6
 212   19:40   85.2    15    0.0     0      0.0   882.5    0.00       0     94.4
 212   19:50   84.8    15    0.0     0      0.0   882.6    0.00       0     94.2
 212   20:00   84.0    15    0.0     0      0.0   882.6    0.00       0     93.9
 212   20:10   83.6    16    0.0     0      0.0   882.7    0.00       0     93.7
 212   20:20   83.1    16    0.0     0      0.0   882.7    0.00       0     93.4
 212   20:30   80.9    17    0.0     0      0.0   882.9    0.00       0     93.2
 212   20:40   82.5    18    0.0     0      0.0   883.0    0.00       0     92.9
 212   20:50   85.1    18    0.0     0      0.0   883.2    0.00       0     92.7
 212   21:00   86.4    17    0.0     0      0.0   883.2    0.00       0     92.4
 212   21:10   84.3    19    0.0     0      0.0   883.2    0.00       0     92.2
 212   21:20   84.2    18    0.0     0      0.0   883.3    0.00       0     91.9
 212   21:30   82.2    20    0.0     0      0.0   883.5    0.00       0     91.7
 212   21:40   82.5    21    0.0     0      0.0   883.5    0.00       0     91.5
 212   21:50   81.7    22    0.0     0      0.0   883.6    0.00       0     91.3
 212   22:00   80.4    23    0.0     0      0.0   883.5    0.00       0     91.1
 212   22:10   81.2    23    0.0     0      0.0   883.5    0.00       0     90.8
 212   22:20   81.1    23    0.0     0      0.0   883.6    0.00       0     90.6
 212   22:30   80.4    24    0.0     0      0.0   883.7    0.00       0     90.4
 212   22:40   79.6    25    0.0     0      0.0   883.9    0.00       0     90.2
 212   22:50   79.3    25    0.0     0      0.0   884.1    0.00       0     90.0
 212   23:00   78.5    27    0.0     0      0.0   884.1    0.00       0     89.8
 212   23:10   78.1    28    0.0     0      0.0   884.2    0.00       0     89.6
 212   23:20   77.7    29    0.0     0      0.0   884.2    0.00       0     89.4
 212   23:30   77.3    30    0.0     0      0.0   884.1    0.00       0     89.2
 212   23:40   76.5    31    0.0     0      0.0   884.2    0.00       0     89.0
 212   23:50   75.6    32    0.0     0      0.0   884.3    0.00       0     88.8
 213    0:00   76.0    32    0.0     0      0.0   884.1    0.00       0     88.6
 213    0:10   76.1    32    0.0     0      0.0   884.1    0.00       0     88.4
 213    0:20   75.7    33    0.0     0      0.0   884.1    0.00       0     88.2
 213    0:30   75.0    33    0.0     0      0.0   884.1    0.00       0     88.0
 213    0:40   74.3    34    0.0     0      0.0   884.2    0.00       0     87.9
 213    0:50   73.7    34    0.0     0      0.0   884.1    0.00       0     87.7
 213    1:00   73.7    34    0.0     0      0.0   884.1    0.00       0     87.5
 213    1:10   71.5    35    0.0     0      0.0   884.2    0.00       0     87.3
 213    1:20   70.4    36    0.0     0      0.0   884.2    0.00       0     87.1
 213    1:30   70.9    36    0.0     0      0.0   884.1    0.00       0     87.0
 213    1:40   70.6    36    0.0     0      0.0   884.2    0.00       0     86.8
 213    1:50   70.4    36    0.0     0      0.0   884.3    0.00       0     86.6
 213    2:00   70.8    36    0.0     0      0.0   884.3    0.00       0     86.5
 213    2:10   71.0    36    0.0     0      0.0   884.3    0.00       0     86.3
 213    2:20   69.6    38    0.0     0      0.0   884.3    0.00       0     86.1
 213    2:30   70.0    38    0.0     0      0.0   884.3    0.00       0     85.9
 213    2:40   70.3    39    0.0     0      0.0   884.3    0.00       0     85.7
 213    2:50   70.0    39    0.0     0      0.0   884.2    0.00       0     85.5
 213    3:00   69.2    40    0.0     0      0.0   884.2    0.00       0     85.4
 213    3:10   68.9    41    0.0     0      0.0   884.2    0.00       0     85.2
 213    3:20   68.2    41    0.0     0      0.0   884.2    0.00       0     85.0
 213    3:30   67.7    42    0.0     0      0.0   884.3    0.00       0     84.9
 213    3:40   68.2    41    0.0     0      0.0   884.3    0.00       0     84.7
 213    3:50   69.3    40    0.0     0      0.0   884.3    0.00       0     84.5
 213    4:00   69.9    39    0.0     0      0.0   884.3    0.00       0     84.4
 213    4:10   69.7    39    0.0     0      0.0   884.3    0.00       0     84.2
 213    4:20   68.8    39    0.0     0      0.0   884.3    0.00       0     84.1
 213    4:30   67.6    41    0.0     0      0.0   884.3    0.00       0     83.9
 213    4:40   66.9    42    0.0     0      0.0   884.4    0.00       0     83.8
 213    4:50   65.7    44    0.0     0      0.0   884.5    0.00       2     83.6
 213    5:00   65.4    45    0.0     0      0.0   884.6    0.00       6     83.5
 213    5:10   65.4    45    0.0     0      0.0   884.6    0.00      20     83.3
 213    5:20   65.6    45    0.0     0      0.0   884.7    0.00      46     83.2

Return to Carson Sink graphs page.


Western Regional Climate Center,wrcc@dri.edu